sensor_id;sensor_type;location;lat;lon;timestamp;pressure;altitude;pressure_sealevel;temperature;humidity
28448;BME280;15675;52.870;-1.416;2023-03-26T00:01:12;99734.16;;;11.09;88.80
28448;BME280;15675;52.870;-1.416;2023-03-26T00:03:40;99731.50;;;11.14;88.24
28448;BME280;15675;52.870;-1.416;2023-03-26T00:06:10;99726.34;;;11.11;87.63
28448;BME280;15675;52.870;-1.416;2023-03-26T00:08:38;99728.63;;;10.68;86.97
28448;BME280;15675;52.870;-1.416;2023-03-26T00:11:06;99721.69;;;10.70;88.39
28448;BME280;15675;52.870;-1.416;2023-03-26T00:13:32;99716.31;;;10.83;89.16
28448;BME280;15675;52.870;-1.416;2023-03-26T00:15:58;99713.13;;;10.62;88.33
28448;BME280;15675;52.870;-1.416;2023-03-26T00:18:24;99710.00;;;10.32;88.54
28448;BME280;15675;52.870;-1.416;2023-03-26T00:20:55;99725.63;;;10.26;90.76
28448;BME280;15675;52.870;-1.416;2023-03-26T00:23:21;99725.63;;;10.23;91.47
28448;BME280;15675;52.870;-1.416;2023-03-26T00:25:47;99719.03;;;9.94;92.67
28448;BME280;15675;52.870;-1.416;2023-03-26T00:28:16;99718.22;;;9.89;94.91
28448;BME280;15675;52.870;-1.416;2023-03-26T00:30:42;99719.56;;;10.26;95.90
28448;BME280;15675;52.870;-1.416;2023-03-26T00:33:08;99719.69;;;10.16;95.70
28448;BME280;15675;52.870;-1.416;2023-03-26T00:35:37;99705.94;;;10.07;96.35
28448;BME280;15675;52.870;-1.416;2023-03-26T00:38:03;99710.44;;;9.89;97.53
28448;BME280;15675;52.870;-1.416;2023-03-26T00:40:28;99706.66;;;10.21;96.84
28448;BME280;15675;52.870;-1.416;2023-03-26T00:42:54;99704.66;;;10.49;96.58
28448;BME280;15675;52.870;-1.416;2023-03-26T00:45:20;99699.44;;;10.49;95.61
28448;BME280;15675;52.870;-1.416;2023-03-26T00:47:46;99696.31;;;10.18;96.27
28448;BME280;15675;52.870;-1.416;2023-03-26T00:50:12;99706.78;;;10.12;96.73
28448;BME280;15675;52.870;-1.416;2023-03-26T00:52:44;99700.53;;;10.28;97.18
28448;BME280;15675;52.870;-1.416;2023-03-26T00:55:11;99695.16;;;10.47;97.07
28448;BME280;15675;52.870;-1.416;2023-03-26T00:57:36;99695.63;;;10.78;97.19
28448;BME280;15675;52.870;-1.416;2023-03-26T01:00:07;99694.94;;;10.64;96.49
28448;BME280;15675;52.870;-1.416;2023-03-26T01:02:34;99696.00;;;10.50;95.94
28448;BME280;15675;52.870;-1.416;2023-03-26T01:10:53;99692.38;;;9.78;100.00
28448;BME280;15675;52.870;-1.416;2023-03-26T01:13:30;99698.16;;;10.08;100.00
28448;BME280;15675;52.870;-1.416;2023-03-26T01:15:58;99691.00;;;10.27;100.00
28448;BME280;15675;52.870;-1.416;2023-03-26T01:18:29;99693.59;;;10.27;100.00
28448;BME280;15675;52.870;-1.416;2023-03-26T01:20:59;99692.69;;;10.38;100.00
28448;BME280;15675;52.870;-1.416;2023-03-26T01:23:38;99692.97;;;10.07;100.00
28448;BME280;15675;52.870;-1.416;2023-03-26T01:26:19;99692.69;;;10.36;100.00
28448;BME280;15675;52.870;-1.416;2023-03-26T01:28:54;99693.75;;;10.15;100.00
28448;BME280;15675;52.870;-1.416;2023-03-26T01:31:31;99697.88;;;10.34;100.00
28448;BME280;15675;52.870;-1.416;2023-03-26T01:36:48;99702.69;;;9.84;100.00
28448;BME280;15675;52.870;-1.416;2023-03-26T01:39:36;99698.53;;;9.68;100.00
28448;BME280;15675;52.870;-1.416;2023-03-26T01:42:10;99695.22;;;9.54;100.00
28448;BME280;15675;52.870;-1.416;2023-03-26T01:44:46;99688.25;;;9.57;100.00
28448;BME280;15675;52.870;-1.416;2023-03-26T01:47:16;99694.44;;;9.41;100.00
28448;BME280;15675;52.870;-1.416;2023-03-26T01:49:42;99685.25;;;9.00;100.00
28448;BME280;15675;52.870;-1.416;2023-03-26T01:52:15;99691.88;;;9.35;100.00
28448;BME280;15675;52.870;-1.416;2023-03-26T01:54:41;99689.25;;;9.38;100.00
28448;BME280;15675;52.870;-1.416;2023-03-26T01:59:50;99692.94;;;9.09;100.00
28448;BME280;15675;52.870;-1.416;2023-03-26T02:05:06;99671.63;;;8.65;100.00
28448;BME280;15675;52.870;-1.416;2023-03-26T02:08:21;99675.91;;;8.68;100.00
28448;BME280;15675;52.870;-1.416;2023-03-26T02:10:45;99672.50;;;8.61;100.00
28448;BME280;15675;52.870;-1.416;2023-03-26T02:13:12;99666.34;;;8.82;100.00
28448;BME280;15675;52.870;-1.416;2023-03-26T02:15:53;99666.44;;;8.62;100.00
28448;BME280;15675;52.870;-1.416;2023-03-26T02:18:19;99668.28;;;8.30;100.00
28448;BME280;15675;52.870;-1.416;2023-03-26T02:20:50;99661.31;;;8.57;100.00
28448;BME280;15675;52.870;-1.416;2023-03-26T02:23:19;99662.97;;;8.74;100.00
28448;BME280;15675;52.870;-1.416;2023-03-26T02:25:46;99662.25;;;8.32;100.00
28448;BME280;15675;52.870;-1.416;2023-03-26T02:28:11;99663.09;;;8.40;100.00
28448;BME280;15675;52.870;-1.416;2023-03-26T02:30:37;99661.38;;;8.36;100.00
28448;BME280;15675;52.870;-1.416;2023-03-26T02:33:04;99657.16;;;8.08;100.00
28448;BME280;15675;52.870;-1.416;2023-03-26T02:35:29;99658.81;;;8.29;100.00
28448;BME280;15675;52.870;-1.416;2023-03-26T02:37:55;99657.97;;;8.21;100.00
28448;BME280;15675;52.870;-1.416;2023-03-26T02:40:21;99642.38;;;8.51;100.00
28448;BME280;15675;52.870;-1.416;2023-03-26T02:42:47;99643.22;;;8.56;100.00
28448;BME280;15675;52.870;-1.416;2023-03-26T02:45:14;99641.69;;;7.98;100.00
28448;BME280;15675;52.870;-1.416;2023-03-26T02:47:39;99646.03;;;7.80;100.00
28448;BME280;15675;52.870;-1.416;2023-03-26T02:50:05;99641.72;;;7.76;100.00
28448;BME280;15675;52.870;-1.416;2023-03-26T02:52:33;99646.91;;;7.85;100.00
28448;BME280;15675;52.870;-1.416;2023-03-26T02:55:02;99649.50;;;7.67;100.00
28448;BME280;15675;52.870;-1.416;2023-03-26T02:57:28;99652.91;;;7.78;100.00
28448;BME280;15675;52.870;-1.416;2023-03-26T02:59:53;99647.78;;;7.69;100.00
28448;BME280;15675;52.870;-1.416;2023-03-26T03:02:20;99653.78;;;7.78;100.00
28448;BME280;15675;52.870;-1.416;2023-03-26T03:04:48;99645.22;;;7.47;100.00
28448;BME280;15675;52.870;-1.416;2023-03-26T03:07:14;99650.34;;;7.58;100.00
28448;BME280;15675;52.870;-1.416;2023-03-26T03:09:40;99639.16;;;7.64;100.00
28448;BME280;15675;52.870;-1.416;2023-03-26T03:12:05;99647.78;;;7.15;100.00
28448;BME280;15675;52.870;-1.416;2023-03-26T03:14:34;99651.25;;;7.18;100.00
28448;BME280;15675;52.870;-1.416;2023-03-26T03:17:02;99644.34;;;7.16;100.00
28448;BME280;15675;52.870;-1.416;2023-03-26T03:19:27;99644.38;;;7.31;100.00
28448;BME280;15675;52.870;-1.416;2023-03-26T03:21:54;99649.50;;;7.42;100.00
28448;BME280;15675;52.870;-1.416;2023-03-26T03:24:22;99644.34;;;7.05;100.00
28448;BME280;15675;52.870;-1.416;2023-03-26T03:26:47;99653.81;;;7.20;100.00
28448;BME280;15675;52.870;-1.416;2023-03-26T03:29:15;99653.81;;;7.11;100.00
28448;BME280;15675;52.870;-1.416;2023-03-26T03:31:40;99652.09;;;7.23;100.00
28448;BME280;15675;52.870;-1.416;2023-03-26T03:34:06;99656.41;;;7.31;100.00
28448;BME280;15675;52.870;-1.416;2023-03-26T03:36:31;99656.41;;;7.32;100.00
28448;BME280;15675;52.870;-1.416;2023-03-26T03:38:58;99665.03;;;7.33;100.00
28448;BME280;15675;52.870;-1.416;2023-03-26T03:41:27;99666.72;;;7.34;100.00
28448;BME280;15675;52.870;-1.416;2023-03-26T03:43:53;99663.28;;;7.38;100.00
28448;BME280;15675;52.870;-1.416;2023-03-26T03:46:18;99661.56;;;7.34;100.00
28448;BME280;15675;52.870;-1.416;2023-03-26T03:48:45;99667.56;;;7.26;100.00
28448;BME280;15675;52.870;-1.416;2023-03-26T03:51:15;99671.03;;;7.10;100.00
28448;BME280;15675;52.870;-1.416;2023-03-26T03:53:43;99666.72;;;7.20;100.00
28448;BME280;15675;52.870;-1.416;2023-03-26T03:56:10;99669.25;;;6.94;100.00
28448;BME280;15675;52.870;-1.416;2023-03-26T03:58:39;99672.72;;;7.11;100.00
28448;BME280;15675;52.870;-1.416;2023-03-26T04:01:05;99668.44;;;7.18;100.00
28448;BME280;15675;52.870;-1.416;2023-03-26T04:03:31;99671.88;;;7.09;100.00
28448;BME280;15675;52.870;-1.416;2023-03-26T04:06:02;99675.31;;;7.09;100.00
28448;BME280;15675;52.870;-1.416;2023-03-26T04:08:31;99677.00;;;6.97;100.00
28448;BME280;15675;52.870;-1.416;2023-03-26T04:10:58;99674.41;;;6.94;100.00
28448;BME280;15675;52.870;-1.416;2023-03-26T04:13:23;99672.75;;;7.22;100.00
28448;BME280;15675;52.870;-1.416;2023-03-26T04:15:50;99681.34;;;7.19;100.00
28448;BME280;15675;52.870;-1.416;2023-03-26T04:18:15;99681.38;;;7.27;100.00
28448;BME280;15675;52.870;-1.416;2023-03-26T04:20:43;99677.03;;;7.14;100.00
28448;BME280;15675;52.870;-1.416;2023-03-26T04:23:16;99684.78;;;7.29;100.00
28448;BME280;15675;52.870;-1.416;2023-03-26T04:25:49;99679.63;;;7.26;100.00
28448;BME280;15675;52.870;-1.416;2023-03-26T04:28:26;99690.84;;;7.36;100.00
28448;BME280;15675;52.870;-1.416;2023-03-26T04:30:54;99687.34;;;7.17;100.00
28448;BME280;15675;52.870;-1.416;2023-03-26T04:33:21;99693.41;;;7.14;100.00
28448;BME280;15675;52.870;-1.416;2023-03-26T04:35:49;99695.09;;;7.06;100.00
28448;BME280;15675;52.870;-1.416;2023-03-26T04:38:16;99689.09;;;7.12;100.00
28448;BME280;15675;52.870;-1.416;2023-03-26T04:40:43;99692.47;;;6.86;100.00
28448;BME280;15675;52.870;-1.416;2023-03-26T04:43:13;99686.50;;;7.05;100.00
28448;BME280;15675;52.870;-1.416;2023-03-26T04:45:40;99679.63;;;7.01;100.00
28448;BME280;15675;52.870;-1.416;2023-03-26T04:48:07;99689.94;;;7.01;100.00
28448;BME280;15675;52.870;-1.416;2023-03-26T04:50:35;99693.38;;;7.11;100.00
28448;BME280;15675;52.870;-1.416;2023-03-26T04:53:01;99692.50;;;7.06;100.00
28448;BME280;15675;52.870;-1.416;2023-03-26T04:55:32;99689.94;;;7.00;100.00
28448;BME280;15675;52.870;-1.416;2023-03-26T04:57:59;99699.41;;;7.10;100.00
28448;BME280;15675;52.870;-1.416;2023-03-26T05:00:27;99700.25;;;7.03;100.00
28448;BME280;15675;52.870;-1.416;2023-03-26T05:02:53;99702.88;;;7.24;100.00
28448;BME280;15675;52.870;-1.416;2023-03-26T05:05:23;99697.69;;;7.12;100.00
28448;BME280;15675;52.870;-1.416;2023-03-26T05:07:50;99702.84;;;7.12;100.00
28448;BME280;15675;52.870;-1.416;2023-03-26T05:10:16;99716.59;;;7.08;100.00
28448;BME280;15675;52.870;-1.416;2023-03-26T05:12:42;99706.31;;;7.13;100.00
28448;BME280;15675;52.870;-1.416;2023-03-26T05:15:09;99700.25;;;7.04;100.00
28448;BME280;15675;52.870;-1.416;2023-03-26T05:17:35;99695.09;;;7.03;100.00
28448;BME280;15675;52.870;-1.416;2023-03-26T05:20:26;99709.72;;;7.13;100.00
28448;BME280;15675;52.870;-1.416;2023-03-26T05:22:53;99709.69;;;7.02;100.00
28448;BME280;15675;52.870;-1.416;2023-03-26T05:25:20;99708.84;;;6.96;100.00
28448;BME280;15675;52.870;-1.416;2023-03-26T05:27:46;99707.97;;;6.89;100.00
28448;BME280;15675;52.870;-1.416;2023-03-26T05:30:17;99703.59;;;6.72;100.00
28448;BME280;15675;52.870;-1.416;2023-03-26T05:32:44;99719.97;;;6.82;100.00
28448;BME280;15675;52.870;-1.416;2023-03-26T05:35:11;99717.44;;;7.01;100.00
28448;BME280;15675;52.870;-1.416;2023-03-26T05:37:37;99726.84;;;6.82;100.00
28448;BME280;15675;52.870;-1.416;2023-03-26T05:40:05;99728.59;;;6.94;100.00
28448;BME280;15675;52.870;-1.416;2023-03-26T05:42:37;99720.91;;;7.04;100.00
28448;BME280;15675;52.870;-1.416;2023-03-26T05:45:07;99726.91;;;7.11;100.00
28448;BME280;15675;52.870;-1.416;2023-03-26T05:47:34;99739.84;;;7.13;100.00
28448;BME280;15675;52.870;-1.416;2023-03-26T05:50:05;99735.50;;;7.01;100.00
28448;BME280;15675;52.870;-1.416;2023-03-26T05:52:31;99734.66;;;7.00;100.00
28448;BME280;15675;52.870;-1.416;2023-03-26T05:54:57;99744.13;;;7.03;100.00
28448;BME280;15675;52.870;-1.416;2023-03-26T05:57:22;99739.81;;;7.05;100.00
28448;BME280;15675;52.870;-1.416;2023-03-26T05:59:53;99744.13;;;7.09;100.00
28448;BME280;15675;52.870;-1.416;2023-03-26T06:02:22;99740.59;;;6.85;100.00
28448;BME280;15675;52.870;-1.416;2023-03-26T06:04:48;99752.66;;;6.80;100.00
28448;BME280;15675;52.870;-1.416;2023-03-26T06:07:16;99756.97;;;6.83;100.00
28448;BME280;15675;52.870;-1.416;2023-03-26T06:09:43;99751.81;;;6.95;100.00
28448;BME280;15675;52.870;-1.416;2023-03-26T06:12:09;99754.38;;;6.83;100.00
28448;BME280;15675;52.870;-1.416;2023-03-26T06:14:36;99762.06;;;6.64;100.00
28448;BME280;15675;52.870;-1.416;2023-03-26T06:17:02;99766.47;;;6.95;100.00
28448;BME280;15675;52.870;-1.416;2023-03-26T06:19:28;99777.53;;;6.66;100.00
28448;BME280;15675;52.870;-1.416;2023-03-26T06:21:53;99776.56;;;6.47;100.00
28448;BME280;15675;52.870;-1.416;2023-03-26T06:24:19;99787.75;;;6.53;100.00
28448;BME280;15675;52.870;-1.416;2023-03-26T06:26:45;99785.25;;;6.63;100.00
28448;BME280;15675;52.870;-1.416;2023-03-26T06:29:13;99791.25;;;6.65;100.00
28448;BME280;15675;52.870;-1.416;2023-03-26T06:31:39;99787.66;;;6.33;100.00
28448;BME280;15675;52.870;-1.416;2023-03-26T06:34:05;99806.72;;;6.57;100.00
28448;BME280;15675;52.870;-1.416;2023-03-26T06:36:31;99813.53;;;6.49;100.00
28448;BME280;15675;52.870;-1.416;2023-03-26T06:38:57;99802.38;;;6.51;100.00
28448;BME280;15675;52.870;-1.416;2023-03-26T06:41:22;99818.78;;;6.64;100.00
28448;BME280;15675;52.870;-1.416;2023-03-26T06:43:48;99817.78;;;6.45;100.00
28448;BME280;15675;52.870;-1.416;2023-03-26T06:46:14;99833.16;;;6.28;100.00
28448;BME280;15675;52.870;-1.416;2023-03-26T06:48:40;99846.97;;;6.41;100.00
28448;BME280;15675;52.870;-1.416;2023-03-26T06:51:07;99834.03;;;6.32;100.00
28448;BME280;15675;52.870;-1.416;2023-03-26T06:53:33;99828.19;;;6.54;100.00
28448;BME280;15675;52.870;-1.416;2023-03-26T06:55:58;99841.00;;;6.44;100.00
28448;BME280;15675;52.870;-1.416;2023-03-26T06:58:24;99841.81;;;6.41;100.00
28448;BME280;15675;52.870;-1.416;2023-03-26T07:00:53;99845.06;;;6.15;100.00
28448;BME280;15675;52.870;-1.416;2023-03-26T07:03:20;99855.59;;;6.43;100.00
28448;BME280;15675;52.870;-1.416;2023-03-26T07:05:46;99849.53;;;6.36;100.00
28448;BME280;15675;52.870;-1.416;2023-03-26T07:08:12;99862.38;;;6.27;100.00
28448;BME280;15675;52.870;-1.416;2023-03-26T07:10:38;99863.38;;;6.52;100.00
28448;BME280;15675;52.870;-1.416;2023-03-26T07:13:03;99877.06;;;6.39;100.00
28448;BME280;15675;52.870;-1.416;2023-03-26T07:15:29;99874.34;;;6.24;100.00
28448;BME280;15675;52.870;-1.416;2023-03-26T07:17:55;99881.16;;;6.18;100.00
28448;BME280;15675;52.870;-1.416;2023-03-26T07:20:21;99886.69;;;6.63;100.00
28448;BME280;15675;52.870;-1.416;2023-03-26T07:22:47;99887.28;;;6.30;100.00
28448;BME280;15675;52.870;-1.416;2023-03-26T07:25:13;99882.88;;;6.15;100.00
28448;BME280;15675;52.870;-1.416;2023-03-26T07:27:50;99896.03;;;6.46;100.00
28448;BME280;15675;52.870;-1.416;2023-03-26T07:33:34;99905.41;;;6.39;100.00
28448;BME280;15675;52.870;-1.416;2023-03-26T07:47:41;99932.88;;;6.35;100.00
28448;BME280;15675;52.870;-1.416;2023-03-26T07:50:21;99942.44;;;6.46;100.00
28448;BME280;15675;52.870;-1.416;2023-03-26T07:52:47;99938.84;;;6.31;100.00
28448;BME280;15675;52.870;-1.416;2023-03-26T07:55:14;99934.69;;;6.44;100.00
28448;BME280;15675;52.870;-1.416;2023-03-26T08:00:40;99942.44;;;6.49;100.00
28448;BME280;15675;52.870;-1.416;2023-03-26T08:12:00;99963.41;;;6.94;100.00
28448;BME280;15675;52.870;-1.416;2023-03-26T08:25:15;99994.88;;;6.51;100.00
28448;BME280;15675;52.870;-1.416;2023-03-26T08:28:07;99992.56;;;6.80;100.00
28448;BME280;15675;52.870;-1.416;2023-03-26T08:30:36;99988.34;;;6.96;100.00
28448;BME280;15675;52.870;-1.416;2023-03-26T08:35:37;99992.53;;;6.79;100.00
28448;BME280;15675;52.870;-1.416;2023-03-26T08:38:11;100008.03;;;6.79;100.00
28448;BME280;15675;52.870;-1.416;2023-03-26T08:51:23;100030.28;;;6.69;100.00
28448;BME280;15675;52.870;-1.416;2023-03-26T08:57:45;100038.22;;;6.95;100.00
28448;BME280;15675;52.870;-1.416;2023-03-26T09:00:29;100056.28;;;6.92;100.00
28448;BME280;15675;52.870;-1.416;2023-03-26T09:06:01;100052.78;;;6.85;100.00
28448;BME280;15675;52.870;-1.416;2023-03-26T09:42:36;100140.88;;;7.25;100.00
28448;BME280;15675;52.870;-1.416;2023-03-26T09:58:13;100148.81;;;7.58;100.00
28448;BME280;15675;52.870;-1.416;2023-03-26T10:16:30;100196.03;;;7.37;100.00
28448;BME280;15675;52.870;-1.416;2023-03-26T10:22:05;100217.81;;;7.67;100.00
28448;BME280;15675;52.870;-1.416;2023-03-26T10:27:42;100217.88;;;7.79;100.00
28448;BME280;15675;52.870;-1.416;2023-03-26T10:30:36;100228.16;;;7.73;100.00
28448;BME280;15675;52.870;-1.416;2023-03-26T10:35:58;100235.97;;;7.79;100.00
28448;BME280;15675;52.870;-1.416;2023-03-26T10:44:31;100245.34;;;7.69;100.00
28448;BME280;15675;52.870;-1.416;2023-03-26T10:53:02;100270.59;;;8.04;100.00
28448;BME280;15675;52.870;-1.416;2023-03-26T10:55:37;100266.03;;;7.69;100.00
28448;BME280;15675;52.870;-1.416;2023-03-26T11:00:40;100292.91;;;7.90;100.00
28448;BME280;15675;52.870;-1.416;2023-03-26T11:05:48;100300.88;;;8.21;100.00
28448;BME280;15675;52.870;-1.416;2023-03-26T11:08:34;100306.97;;;8.30;100.00
28448;BME280;15675;52.870;-1.416;2023-03-26T11:11:19;100302.81;;;8.48;97.15
28448;BME280;15675;52.870;-1.416;2023-03-26T11:14:02;100312.16;;;8.34;95.40
28448;BME280;15675;52.870;-1.416;2023-03-26T11:19:55;100303.53;;;8.28;88.35
28448;BME280;15675;52.870;-1.416;2023-03-26T11:33:36;100343.22;;;8.37;84.87
28448;BME280;15675;52.870;-1.416;2023-03-26T11:36:06;100346.75;;;8.45;83.79
28448;BME280;15675;52.870;-1.416;2023-03-26T11:38:43;100347.63;;;8.47;82.54
28448;BME280;15675;52.870;-1.416;2023-03-26T11:41:17;100364.84;;;8.45;81.12
28448;BME280;15675;52.870;-1.416;2023-03-26T11:43:44;100368.34;;;8.53;79.04
28448;BME280;15675;52.870;-1.416;2023-03-26T11:46:17;100367.38;;;8.37;79.13
28448;BME280;15675;52.870;-1.416;2023-03-26T11:48:47;100382.31;;;8.80;79.28
28448;BME280;15675;52.870;-1.416;2023-03-26T11:51:22;100375.09;;;8.31;81.43
28448;BME280;15675;52.870;-1.416;2023-03-26T11:53:49;100384.53;;;8.30;82.01
28448;BME280;15675;52.870;-1.416;2023-03-26T11:56:47;100382.75;;;8.22;79.66
28448;BME280;15675;52.870;-1.416;2023-03-26T11:59:17;100390.81;;;8.56;81.37
28448;BME280;15675;52.870;-1.416;2023-03-26T12:02:15;100397.00;;;8.78;80.78
28448;BME280;15675;52.870;-1.416;2023-03-26T12:04:43;100401.28;;;8.79;77.30
28448;BME280;15675;52.870;-1.416;2023-03-26T12:07:15;100405.50;;;8.63;76.45
28448;BME280;15675;52.870;-1.416;2023-03-26T12:09:59;100406.56;;;8.99;77.08
28448;BME280;15675;52.870;-1.416;2023-03-26T12:12:30;100406.44;;;8.74;76.64
28448;BME280;15675;52.870;-1.416;2023-03-26T12:14:57;100423.97;;;9.23;77.91
28448;BME280;15675;52.870;-1.416;2023-03-26T12:17:32;100427.69;;;8.35;75.29
28448;BME280;15675;52.870;-1.416;2023-03-26T12:19:59;100438.28;;;8.62;75.35
28448;BME280;15675;52.870;-1.416;2023-03-26T12:22:32;100437.06;;;8.22;74.51
28448;BME280;15675;52.870;-1.416;2023-03-26T12:25:17;100437.50;;;8.77;74.74
28448;BME280;15675;52.870;-1.416;2023-03-26T12:27:46;100430.41;;;8.45;72.72
28448;BME280;15675;52.870;-1.416;2023-03-26T12:30:23;100453.47;;;8.25;73.73
28448;BME280;15675;52.870;-1.416;2023-03-26T12:32:51;100453.72;;;8.52;74.36
28448;BME280;15675;52.870;-1.416;2023-03-26T12:35:25;100466.81;;;8.75;74.91
28448;BME280;15675;52.870;-1.416;2023-03-26T12:37:53;100465.25;;;8.92;75.78
28448;BME280;15675;52.870;-1.416;2023-03-26T12:40:30;100466.81;;;8.75;75.93
28448;BME280;15675;52.870;-1.416;2023-03-26T12:43:01;100474.56;;;8.72;76.73
28448;BME280;15675;52.870;-1.416;2023-03-26T12:45:36;100479.84;;;8.84;76.83
28448;BME280;15675;52.870;-1.416;2023-03-26T12:48:03;100488.44;;;8.80;76.48
28448;BME280;15675;52.870;-1.416;2023-03-26T12:53:51;100492.19;;;9.22;74.51
28448;BME280;15675;52.870;-1.416;2023-03-26T12:56:30;100483.66;;;9.45;75.50
28448;BME280;15675;52.870;-1.416;2023-03-26T12:59:40;100504.41;;;9.53;74.97
28448;BME280;15675;52.870;-1.416;2023-03-26T13:13:57;100538.75;;;9.18;73.97
28448;BME280;15675;52.870;-1.416;2023-03-26T13:16:40;100546.69;;;9.44;72.88
28448;BME280;15675;52.870;-1.416;2023-03-26T13:19:14;100546.69;;;9.44;72.38
28448;BME280;15675;52.870;-1.416;2023-03-26T13:21:54;100551.88;;;9.47;71.56
28448;BME280;15675;52.870;-1.416;2023-03-26T13:27:35;100559.69;;;9.53;70.61
28448;BME280;15675;52.870;-1.416;2023-03-26T13:32:47;100568.53;;;10.01;71.15
28448;BME280;15675;52.870;-1.416;2023-03-26T13:38:13;100577.19;;;10.00;70.68
28448;BME280;15675;52.870;-1.416;2023-03-26T13:41:14;100578.09;;;10.15;72.67
28448;BME280;15675;52.870;-1.416;2023-03-26T13:44:04;100590.09;;;9.82;72.86
28448;BME280;15675;52.870;-1.416;2023-03-26T13:47:23;100594.47;;;10.03;73.12
28448;BME280;15675;52.870;-1.416;2023-03-26T13:49:36;100604.53;;;9.44;70.73
28448;BME280;15675;52.870;-1.416;2023-03-26T13:54:53;100596.72;;;9.37;74.11
28448;BME280;15675;52.870;-1.416;2023-03-26T13:57:32;100612.72;;;8.85;73.25
28448;BME280;15675;52.870;-1.416;2023-03-26T14:00:10;100604.22;;;9.00;74.33
28448;BME280;15675;52.870;-1.416;2023-03-26T14:02:42;100610.34;;;9.08;75.58
28448;BME280;15675;52.870;-1.416;2023-03-26T14:05:22;100613.81;;;9.13;74.95
28448;BME280;15675;52.870;-1.416;2023-03-26T14:07:56;100620.78;;;9.20;74.96
28448;BME280;15675;52.870;-1.416;2023-03-26T14:10:32;100621.00;;;9.54;75.06
28448;BME280;15675;52.870;-1.416;2023-03-26T14:13:24;100626.88;;;9.25;75.29
28448;BME280;15675;52.870;-1.416;2023-03-26T14:18:38;100636.41;;;9.31;73.40
28448;BME280;15675;52.870;-1.416;2023-03-26T14:21:32;100647.44;;;9.07;72.46
28448;BME280;15675;52.870;-1.416;2023-03-26T14:24:42;100649.19;;;9.09;70.87
28448;BME280;15675;52.870;-1.416;2023-03-26T14:33:18;100658.69;;;9.12;68.77
28448;BME280;15675;52.870;-1.416;2023-03-26T14:38:59;100663.78;;;9.03;68.31
28448;BME280;15675;52.870;-1.416;2023-03-26T14:41:50;100674.31;;;9.21;68.25
28448;BME280;15675;52.870;-1.416;2023-03-26T14:44:27;100670.72;;;9.05;68.94
28448;BME280;15675;52.870;-1.416;2023-03-26T15:09:48;100742.75;;;8.63;71.32
28448;BME280;15675;52.870;-1.416;2023-03-26T15:40:30;100813.72;;;8.81;76.37
28448;BME280;15675;52.870;-1.416;2023-03-26T15:43:21;100812.66;;;8.67;77.25
28448;BME280;15675;52.870;-1.416;2023-03-26T15:48:58;100829.34;;;8.90;76.13
28448;BME280;15675;52.870;-1.416;2023-03-26T15:51:48;100838.34;;;8.53;72.84
28448;BME280;15675;52.870;-1.416;2023-03-26T15:54:36;100838.59;;;8.70;72.15
28448;BME280;15675;52.870;-1.416;2023-03-26T15:57:52;100838.38;;;8.54;71.38
28448;BME280;15675;52.870;-1.416;2023-03-26T16:00:26;100842.06;;;8.73;69.50
28448;BME280;15675;52.870;-1.416;2023-03-26T16:06:04;100852.09;;;9.16;72.43
28448;BME280;15675;52.870;-1.416;2023-03-26T16:11:47;100861.69;;;8.57;70.38
28448;BME280;15675;52.870;-1.416;2023-03-26T16:17:05;100880.34;;;8.38;71.22
28448;BME280;15675;52.870;-1.416;2023-03-26T16:22:44;100882.53;;;8.67;71.70
28448;BME280;15675;52.870;-1.416;2023-03-26T16:25:52;100895.03;;;8.40;71.44
28448;BME280;15675;52.870;-1.416;2023-03-26T16:31:33;100901.94;;;8.96;70.81
28448;BME280;15675;52.870;-1.416;2023-03-26T16:36:42;100918.34;;;9.00;69.79
28448;BME280;15675;52.870;-1.416;2023-03-26T16:44:54;100946.88;;;7.94;76.42
28448;BME280;15675;52.870;-1.416;2023-03-26T16:47:36;100954.22;;;7.73;79.24
28448;BME280;15675;52.870;-1.416;2023-03-26T16:50:50;100964.84;;;7.87;80.96
28448;BME280;15675;52.870;-1.416;2023-03-26T16:53:22;100975.84;;;7.78;82.17
28448;BME280;15675;52.870;-1.416;2023-03-26T16:55:56;100986.16;;;7.76;83.28
28448;BME280;15675;52.870;-1.416;2023-03-26T17:01:07;101002.94;;;7.54;91.57
28448;BME280;15675;52.870;-1.416;2023-03-26T17:03:59;101009.00;;;7.56;94.17
28448;BME280;15675;52.870;-1.416;2023-03-26T17:12:15;101015.47;;;6.98;100.00
28448;BME280;15675;52.870;-1.416;2023-03-26T17:20:16;101026.56;;;7.71;97.44
28448;BME280;15675;52.870;-1.416;2023-03-26T17:22:50;101029.31;;;7.81;93.69
28448;BME280;15675;52.870;-1.416;2023-03-26T17:28:32;101032.13;;;8.39;88.21
28448;BME280;15675;52.870;-1.416;2023-03-26T17:31:04;101030.22;;;8.79;87.02
28448;BME280;15675;52.870;-1.416;2023-03-26T17:33:37;101030.25;;;8.80;83.75
28448;BME280;15675;52.870;-1.416;2023-03-26T17:41:13;101056.50;;;8.50;79.80
28448;BME280;15675;52.870;-1.416;2023-03-26T17:43:50;101063.03;;;7.85;78.43
28448;BME280;15675;52.870;-1.416;2023-03-26T17:46:21;101059.19;;;8.10;79.16
28448;BME280;15675;52.870;-1.416;2023-03-26T17:48:59;101061.03;;;8.18;78.82
28448;BME280;15675;52.870;-1.416;2023-03-26T17:56:46;101078.72;;;7.96;81.31
28448;BME280;15675;52.870;-1.416;2023-03-26T17:59:18;101081.91;;;8.25;80.97
28448;BME280;15675;52.870;-1.416;2023-03-26T18:01:50;101094.19;;;8.37;79.96
28448;BME280;15675;52.870;-1.416;2023-03-26T18:04:23;101098.00;;;8.56;80.08
28448;BME280;15675;52.870;-1.416;2023-03-26T18:18:19;101122.31;;;8.22;81.66
28448;BME280;15675;52.870;-1.416;2023-03-26T18:20:48;101132.81;;;7.85;83.81
28448;BME280;15675;52.870;-1.416;2023-03-26T18:23:24;101128.13;;;8.10;85.39
28448;BME280;15675;52.870;-1.416;2023-03-26T18:26:11;101138.53;;;8.13;85.23
28448;BME280;15675;52.870;-1.416;2023-03-26T18:28:44;101144.41;;;8.06;86.08
28448;BME280;15675;52.870;-1.416;2023-03-26T18:31:21;101145.78;;;8.29;85.65
28448;BME280;15675;52.870;-1.416;2023-03-26T18:33:49;101147.88;;;8.06;86.27
28448;BME280;15675;52.870;-1.416;2023-03-26T18:36:19;101148.31;;;7.85;87.18
28448;BME280;15675;52.870;-1.416;2023-03-26T18:38:45;101153.66;;;7.94;87.94
28448;BME280;15675;52.870;-1.416;2023-03-26T18:41:24;101152.25;;;7.69;88.05
28448;BME280;15675;52.870;-1.416;2023-03-26T18:43:52;101145.88;;;7.53;87.53